sensor_id;sensor_type;location;lat;lon;timestamp;pressure;altitude;pressure_sealevel;temperature;humidity
76478;BME280;65309;49.790;18.972;2024-01-16T00:03:32;60129.56;;;-145.46;84.92
76478;BME280;65309;49.790;18.972;2024-01-16T00:08:35;60123.25;;;-145.46;87.71
76478;BME280;65309;49.790;18.972;2024-01-16T00:13:38;60125.38;;;-145.46;87.89
76478;BME280;65309;49.790;18.972;2024-01-16T00:18:40;60119.06;;;-145.46;90.77
76478;BME280;65309;49.790;18.972;2024-01-16T00:23:43;60142.19;;;-145.46;89.59
76478;BME280;65309;49.790;18.972;2024-01-16T00:28:45;60133.78;;;-145.46;88.60
76478;BME280;65309;49.790;18.972;2024-01-16T00:33:47;60129.56;;;-145.46;89.24
76478;BME280;65309;49.790;18.972;2024-01-16T00:38:51;60089.63;;;-145.46;88.09
76478;BME280;65309;49.790;18.972;2024-01-16T00:43:53;60100.13;;;-145.46;89.92
76478;BME280;65309;49.790;18.972;2024-01-16T00:48:55;60133.78;;;-145.46;91.75
76478;BME280;65309;49.790;18.972;2024-01-16T00:53:59;60154.81;;;-145.46;89.89
76478;BME280;65309;49.790;18.972;2024-01-16T00:59:01;60156.91;;;-145.46;88.33
76478;BME280;65309;49.790;18.972;2024-01-16T01:04:03;60154.81;;;-145.46;90.18
76478;BME280;65309;49.790;18.972;2024-01-16T01:09:07;60150.59;;;-145.46;90.44
76478;BME280;65309;49.790;18.972;2024-01-16T01:14:09;60188.44;;;-145.46;93.53
76478;BME280;65309;49.790;18.972;2024-01-16T01:19:11;60125.38;;;-145.46;92.51
76478;BME280;65309;49.790;18.972;2024-01-16T01:24:16;60121.16;;;-145.46;92.22
76478;BME280;65309;49.790;18.972;2024-01-16T01:29:18;60159.00;;;-145.46;92.68
76478;BME280;65309;49.790;18.972;2024-01-16T01:34:20;60148.50;;;-145.46;92.91
76478;BME280;65309;49.790;18.972;2024-01-16T01:39:24;60192.63;;;-145.46;93.07
76478;BME280;65309;49.790;18.972;2024-01-16T01:44:26;60137.97;;;-145.46;94.86
76478;BME280;65309;49.790;18.972;2024-01-16T01:49:28;60163.22;;;-145.46;96.36
76478;BME280;65309;49.790;18.972;2024-01-16T01:54:33;60100.13;;;-145.46;97.35
76478;BME280;65309;49.790;18.972;2024-01-16T01:59:36;60112.75;;;-145.46;97.54
76478;BME280;65309;49.790;18.972;2024-01-16T02:04:40;60133.78;;;-145.46;96.81
76478;BME280;65309;49.790;18.972;2024-01-16T02:09:44;60137.97;;;-145.46;96.28
76478;BME280;65309;49.790;18.972;2024-01-16T02:14:46;60175.81;;;-145.46;97.14
76478;BME280;65309;49.790;18.972;2024-01-16T02:19:49;60154.81;;;-145.46;96.37
76478;BME280;65309;49.790;18.972;2024-01-16T02:24:52;60146.38;;;-145.46;96.67
76478;BME280;65309;49.790;18.972;2024-01-16T02:29:54;60169.50;;;-145.46;97.17
76478;BME280;65309;49.790;18.972;2024-01-16T02:34:56;60159.00;;;-145.46;97.48
76478;BME280;65309;49.790;18.972;2024-01-16T02:40:00;60190.53;;;-145.46;97.30
76478;BME280;65309;49.790;18.972;2024-01-16T02:45:06;60175.81;;;-145.46;96.04
76478;BME280;65309;49.790;18.972;2024-01-16T02:50:09;60163.22;;;-145.46;94.98
76478;BME280;65309;49.790;18.972;2024-01-16T02:55:15;60148.50;;;-145.46;93.70
76478;BME280;65309;49.790;18.972;2024-01-16T03:00:17;60125.38;;;-145.46;92.89
76478;BME280;65309;49.790;18.972;2024-01-16T03:05:19;60121.16;;;-145.46;92.68
76478;BME280;65309;49.790;18.972;2024-01-16T03:10:23;60146.38;;;-145.46;93.25
76478;BME280;65309;49.790;18.972;2024-01-16T03:15:25;60129.56;;;-145.46;92.29
76478;BME280;65309;49.790;18.972;2024-01-16T03:20:27;60127.47;;;-145.46;91.78
76478;BME280;65309;49.790;18.972;2024-01-16T03:25:31;60148.50;;;-145.46;92.64
76478;BME280;65309;49.790;18.972;2024-01-16T03:30:34;60129.56;;;-145.46;92.48
76478;BME280;65309;49.790;18.972;2024-01-16T03:35:37;60137.97;;;-145.46;93.96
76478;BME280;65309;49.790;18.972;2024-01-16T03:40:40;60171.63;;;-145.46;94.57
76478;BME280;65309;49.790;18.972;2024-01-16T03:45:42;60213.66;;;-145.46;92.53
76478;BME280;65309;49.790;18.972;2024-01-16T03:50:45;60163.22;;;-145.46;92.19
76478;BME280;65309;49.790;18.972;2024-01-16T03:55:50;60169.50;;;-145.46;91.13
76478;BME280;65309;49.790;18.972;2024-01-16T04:00:53;60150.59;;;-145.46;90.64
76478;BME280;65309;49.790;18.972;2024-01-16T04:05:55;60135.88;;;-145.46;90.77
76478;BME280;65309;49.790;18.972;2024-01-16T04:10:59;60154.81;;;-145.46;90.88
76478;BME280;65309;49.790;18.972;2024-01-16T04:16:01;60167.41;;;-145.46;91.10
76478;BME280;65309;49.790;18.972;2024-01-16T04:21:03;60150.59;;;-145.46;90.59
76478;BME280;65309;49.790;18.972;2024-01-16T04:26:07;60152.69;;;-145.46;91.89
76478;BME280;65309;49.790;18.972;2024-01-16T04:31:09;60175.81;;;-145.46;92.38
76478;BME280;65309;49.790;18.972;2024-01-16T04:36:13;60144.28;;;-145.46;92.39
76478;BME280;65309;49.790;18.972;2024-01-16T04:41:18;60114.84;;;-145.46;92.96
76478;BME280;65309;49.790;18.972;2024-01-16T04:46:21;60142.19;;;-145.46;92.58
76478;BME280;65309;49.790;18.972;2024-01-16T04:51:23;60150.59;;;-145.46;91.80
76478;BME280;65309;49.790;18.972;2024-01-16T04:56:27;60112.75;;;-145.46;91.06
76478;BME280;65309;49.790;18.972;2024-01-16T05:01:29;60146.38;;;-145.46;91.04
76478;BME280;65309;49.790;18.972;2024-01-16T05:06:31;60125.38;;;-145.46;90.99
76478;BME280;65309;49.790;18.972;2024-01-16T05:11:35;60142.19;;;-145.46;92.72
76478;BME280;65309;49.790;18.972;2024-01-16T05:16:37;60137.97;;;-145.46;96.85
76478;BME280;65309;49.790;18.972;2024-01-16T05:21:40;60129.56;;;-145.46;100.00
76478;BME280;65309;49.790;18.972;2024-01-16T05:26:43;60137.97;;;-145.46;100.00
76478;BME280;65309;49.790;18.972;2024-01-16T05:31:46;60121.16;;;-145.46;100.00
76478;BME280;65309;49.790;18.972;2024-01-16T05:36:49;60129.56;;;-145.46;100.00
76478;BME280;65309;49.790;18.972;2024-01-16T05:41:52;60144.28;;;-145.46;100.00
76478;BME280;65309;49.790;18.972;2024-01-16T05:46:54;60159.00;;;-145.46;100.00
76478;BME280;65309;49.790;18.972;2024-01-16T05:51:56;60150.59;;;-145.46;100.00
76478;BME280;65309;49.790;18.972;2024-01-16T05:57:00;60184.22;;;-145.46;100.00
76478;BME280;65309;49.790;18.972;2024-01-16T06:02:02;60129.56;;;-145.46;100.00
76478;BME280;65309;49.790;18.972;2024-01-16T06:07:04;60184.22;;;-145.46;100.00
76478;BME280;65309;49.790;18.972;2024-01-16T06:12:10;60163.22;;;-145.46;100.00
76478;BME280;65309;49.790;18.972;2024-01-16T06:17:14;60163.22;;;-145.46;100.00
76478;BME280;65309;49.790;18.972;2024-01-16T06:22:16;60156.91;;;-145.46;100.00
76478;BME280;65309;49.790;18.972;2024-01-16T06:27:19;60167.41;;;-145.46;96.90
76478;BME280;65309;49.790;18.972;2024-01-16T06:32:21;60161.09;;;-145.46;94.96
76478;BME280;65309;49.790;18.972;2024-01-16T06:37:24;60140.09;;;-145.46;93.85
76478;BME280;65309;49.790;18.972;2024-01-16T06:42:27;60150.59;;;-145.46;93.42
76478;BME280;65309;49.790;18.972;2024-01-16T06:47:29;60173.72;;;-145.46;92.68
76478;BME280;65309;49.790;18.972;2024-01-16T06:52:32;60180.03;;;-145.46;92.06
76478;BME280;65309;49.790;18.972;2024-01-16T06:57:35;60154.81;;;-145.46;92.00
76478;BME280;65309;49.790;18.972;2024-01-16T07:02:37;60167.41;;;-145.46;91.65
76478;BME280;65309;49.790;18.972;2024-01-16T07:07:39;60154.81;;;-145.46;89.80
76478;BME280;65309;49.790;18.972;2024-01-16T07:12:43;60129.56;;;-145.46;90.21
76478;BME280;65309;49.790;18.972;2024-01-16T07:17:45;60133.78;;;-145.46;90.46
76478;BME280;65309;49.790;18.972;2024-01-16T07:22:47;60152.69;;;-145.46;90.28
76478;BME280;65309;49.790;18.972;2024-01-16T07:27:51;60116.97;;;-145.46;91.15
76478;BME280;65309;49.790;18.972;2024-01-16T07:32:53;60159.00;;;-145.46;89.75
76478;BME280;65309;49.790;18.972;2024-01-16T07:37:56;60177.94;;;-145.46;90.56
76478;BME280;65309;49.790;18.972;2024-01-16T07:42:59;60171.63;;;-145.46;87.95
76478;BME280;65309;49.790;18.972;2024-01-16T07:48:01;60131.69;;;-145.46;88.36
76478;BME280;65309;49.790;18.972;2024-01-16T07:53:04;60146.38;;;-145.46;86.93
76478;BME280;65309;49.790;18.972;2024-01-16T07:58:07;60148.50;;;-145.46;87.14
76478;BME280;65309;49.790;18.972;2024-01-16T08:03:09;60161.09;;;-145.46;89.79
76478;BME280;65309;49.790;18.972;2024-01-16T08:08:13;60100.13;;;-145.46;87.47
76478;BME280;65309;49.790;18.972;2024-01-16T08:13:17;60150.59;;;-145.46;89.70
76478;BME280;65309;49.790;18.972;2024-01-16T08:18:19;60171.63;;;-145.46;87.32
76478;BME280;65309;49.790;18.972;2024-01-16T08:23:21;60150.59;;;-145.46;88.47
76478;BME280;65309;49.790;18.972;2024-01-16T08:28:25;60129.56;;;-145.46;89.63
76478;BME280;65309;49.790;18.972;2024-01-16T08:33:27;60144.28;;;-145.46;89.54
76478;BME280;65309;49.790;18.972;2024-01-16T08:38:43;60146.38;;;-145.46;93.18
76478;BME280;65309;49.790;18.972;2024-01-16T08:43:48;60137.97;;;-145.46;93.17
76478;BME280;65309;49.790;18.972;2024-01-16T08:48:50;60131.69;;;-145.46;92.73
76478;BME280;65309;49.790;18.972;2024-01-16T08:53:52;60150.59;;;-145.46;92.87
76478;BME280;65309;49.790;18.972;2024-01-16T08:58:56;60121.16;;;-145.46;92.87
76478;BME280;65309;49.790;18.972;2024-01-16T09:03:58;60135.88;;;-145.46;93.60
76478;BME280;65309;49.790;18.972;2024-01-16T09:09:01;60146.38;;;-145.46;95.87
76478;BME280;65309;49.790;18.972;2024-01-16T09:14:04;60119.06;;;-145.46;96.33
76478;BME280;65309;49.790;18.972;2024-01-16T09:19:06;60159.00;;;-145.46;94.52
76478;BME280;65309;49.790;18.972;2024-01-16T09:24:09;60100.13;;;-145.46;91.24
76478;BME280;65309;49.790;18.972;2024-01-16T09:29:12;60125.38;;;-145.46;88.68
76478;BME280;65309;49.790;18.972;2024-01-16T09:34:16;60142.19;;;-145.46;87.39
76478;BME280;65309;49.790;18.972;2024-01-16T09:39:19;60154.81;;;-145.46;87.08
76478;BME280;65309;49.790;18.972;2024-01-16T09:44:22;60093.84;;;-145.46;84.69
76478;BME280;65309;49.790;18.972;2024-01-16T09:49:24;60108.56;;;-145.46;84.77
76478;BME280;65309;49.790;18.972;2024-01-16T09:54:27;60146.38;;;-145.46;82.60
76478;BME280;65309;49.790;18.972;2024-01-16T09:59:31;60146.38;;;-145.46;82.36
76478;BME280;65309;49.790;18.972;2024-01-16T10:04:34;60129.56;;;-145.46;81.99
76478;BME280;65309;49.790;18.972;2024-01-16T10:09:37;60125.38;;;-145.46;81.35
76478;BME280;65309;49.790;18.972;2024-01-16T10:14:41;60095.94;;;-145.46;79.35
76478;BME280;65309;49.790;18.972;2024-01-16T10:19:49;60095.94;;;-145.46;79.62
76478;BME280;65309;49.790;18.972;2024-01-16T10:25:04;60116.97;;;-145.46;77.65
76478;BME280;65309;49.790;18.972;2024-01-16T10:30:08;60131.69;;;-145.46;77.54
76478;BME280;65309;49.790;18.972;2024-01-16T10:35:13;60095.94;;;-145.46;78.05
76478;BME280;65309;49.790;18.972;2024-01-16T10:40:18;60119.06;;;-145.46;78.66
76478;BME280;65309;49.790;18.972;2024-01-16T10:45:25;60112.75;;;-145.46;79.52
76478;BME280;65309;49.790;18.972;2024-01-16T10:50:28;60150.59;;;-145.46;79.83
76478;BME280;65309;49.790;18.972;2024-01-16T10:55:31;60112.75;;;-145.46;80.31
76478;BME280;65309;49.790;18.972;2024-01-16T11:00:39;60127.47;;;-145.46;79.29
76478;BME280;65309;49.790;18.972;2024-01-16T11:05:41;60137.97;;;-145.46;78.63
76478;BME280;65309;49.790;18.972;2024-01-16T11:10:45;60119.06;;;-145.46;76.34
76478;BME280;65309;49.790;18.972;2024-01-16T11:15:50;60140.09;;;-145.46;77.27
76478;BME280;65309;49.790;18.972;2024-01-16T11:20:54;60058.09;;;-145.46;76.96
76478;BME280;65309;49.790;18.972;2024-01-16T11:26:26;60100.13;;;-145.46;76.28
76478;BME280;65309;49.790;18.972;2024-01-16T11:31:32;60119.06;;;-145.46;77.65
76478;BME280;65309;49.790;18.972;2024-01-16T11:36:51;60110.66;;;-145.46;77.36
76478;BME280;65309;49.790;18.972;2024-01-16T11:41:58;60121.16;;;-145.46;77.60
76478;BME280;65309;49.790;18.972;2024-01-16T11:47:03;60135.88;;;-145.46;75.91
76478;BME280;65309;49.790;18.972;2024-01-16T11:52:05;60074.91;;;-145.46;75.22
76478;BME280;65309;49.790;18.972;2024-01-16T11:57:41;60135.88;;;-145.46;73.81
76478;BME280;65309;49.790;18.972;2024-01-16T12:02:52;60116.97;;;-145.46;75.84
76478;BME280;65309;49.790;18.972;2024-01-16T12:07:55;60102.25;;;-145.46;75.87
76478;BME280;65309;49.790;18.972;2024-01-16T12:12:58;60131.69;;;-145.46;74.50
76478;BME280;65309;49.790;18.972;2024-01-16T12:18:07;60072.81;;;-145.46;74.61
76478;BME280;65309;49.790;18.972;2024-01-16T12:23:24;60104.34;;;-145.46;75.66
76478;BME280;65309;49.790;18.972;2024-01-16T12:28:26;60116.97;;;-145.46;75.67
76478;BME280;65309;49.790;18.972;2024-01-16T12:33:36;60146.38;;;-145.46;76.47
76478;BME280;65309;49.790;18.972;2024-01-16T12:38:39;60108.56;;;-145.46;76.71
76478;BME280;65309;49.790;18.972;2024-01-16T12:43:42;60125.38;;;-145.46;76.60
76478;BME280;65309;49.790;18.972;2024-01-16T12:48:46;60112.75;;;-145.46;76.96
76478;BME280;65309;49.790;18.972;2024-01-16T12:54:11;60129.56;;;-145.46;76.88
76478;BME280;65309;49.790;18.972;2024-01-16T12:59:15;60125.38;;;-145.46;77.74
76478;BME280;65309;49.790;18.972;2024-01-16T13:04:18;60121.16;;;-145.46;80.43
76478;BME280;65309;49.790;18.972;2024-01-16T13:09:22;60081.22;;;-145.46;86.11
76478;BME280;65309;49.790;18.972;2024-01-16T13:14:24;60098.03;;;-145.46;88.91
76478;BME280;65309;49.790;18.972;2024-01-16T13:19:28;60140.09;;;-145.46;88.85
76478;BME280;65309;49.790;18.972;2024-01-16T13:24:35;60127.47;;;-145.46;88.01
76478;BME280;65309;49.790;18.972;2024-01-16T13:29:38;60163.22;;;-145.46;86.55
76478;BME280;65309;49.790;18.972;2024-01-16T13:34:43;60108.56;;;-145.46;78.22
76478;BME280;65309;49.790;18.972;2024-01-16T13:39:50;60104.34;;;-145.46;76.29
76478;BME280;65309;49.790;18.972;2024-01-16T13:44:53;60129.56;;;-145.46;75.54
76478;BME280;65309;49.790;18.972;2024-01-16T13:49:56;60133.78;;;-145.46;73.81
76478;BME280;65309;49.790;18.972;2024-01-16T13:54:58;60144.28;;;-145.46;74.83
76478;BME280;65309;49.790;18.972;2024-01-16T14:00:02;60142.19;;;-145.46;75.35
76478;BME280;65309;49.790;18.972;2024-01-16T14:05:07;60146.38;;;-145.46;76.73
76478;BME280;65309;49.790;18.972;2024-01-16T14:10:13;60125.38;;;-145.46;77.40
76478;BME280;65309;49.790;18.972;2024-01-16T14:15:17;60125.38;;;-145.46;77.81
76478;BME280;65309;49.790;18.972;2024-01-16T14:20:25;60125.38;;;-145.46;78.87
76478;BME280;65309;49.790;18.972;2024-01-16T14:25:30;60112.75;;;-145.46;78.80
76478;BME280;65309;49.790;18.972;2024-01-16T14:30:34;60150.59;;;-145.46;78.31
76478;BME280;65309;49.790;18.972;2024-01-16T14:35:38;60142.19;;;-145.46;79.00
76478;BME280;65309;49.790;18.972;2024-01-16T14:40:40;60150.59;;;-145.46;78.90
76478;BME280;65309;49.790;18.972;2024-01-16T14:45:42;60142.19;;;-145.46;78.96
76478;BME280;65309;49.790;18.972;2024-01-16T14:50:46;60140.09;;;-145.46;78.77
76478;BME280;65309;49.790;18.972;2024-01-16T14:55:51;60148.50;;;-145.46;78.33
76478;BME280;65309;49.790;18.972;2024-01-16T15:00:55;60108.56;;;-145.46;77.94
76478;BME280;65309;49.790;18.972;2024-01-16T15:05:59;60116.97;;;-145.46;78.21
76478;BME280;65309;49.790;18.972;2024-01-16T15:11:01;60127.47;;;-145.46;78.37
76478;BME280;65309;49.790;18.972;2024-01-16T15:16:04;60125.38;;;-145.46;78.54
76478;BME280;65309;49.790;18.972;2024-01-16T15:21:07;60104.34;;;-145.46;79.21
76478;BME280;65309;49.790;18.972;2024-01-16T15:26:10;60106.44;;;-145.46;79.03
76478;BME280;65309;49.790;18.972;2024-01-16T15:31:12;60091.72;;;-145.46;78.49
76478;BME280;65309;49.790;18.972;2024-01-16T15:36:16;60137.97;;;-145.46;78.25
76478;BME280;65309;49.790;18.972;2024-01-16T15:41:18;60123.25;;;-145.46;77.85
76478;BME280;65309;49.790;18.972;2024-01-16T15:46:20;60140.09;;;-145.46;78.62
76478;BME280;65309;49.790;18.972;2024-01-16T15:51:24;60150.59;;;-145.46;78.49
76478;BME280;65309;49.790;18.972;2024-01-16T15:56:26;60146.38;;;-145.46;78.30
76478;BME280;65309;49.790;18.972;2024-01-16T16:01:28;60125.38;;;-145.46;81.62
76478;BME280;65309;49.790;18.972;2024-01-16T16:06:35;60089.63;;;-145.46;90.40
76478;BME280;65309;49.790;18.972;2024-01-16T16:11:41;60114.84;;;-145.46;93.88
76478;BME280;65309;49.790;18.972;2024-01-16T16:16:45;60163.22;;;-145.46;95.89
76478;BME280;65309;49.790;18.972;2024-01-16T16:21:50;60070.72;;;-145.46;96.40
76478;BME280;65309;49.790;18.972;2024-01-16T16:26:53;60137.97;;;-145.46;97.18
76478;BME280;65309;49.790;18.972;2024-01-16T16:31:57;60131.69;;;-145.46;98.13
76478;BME280;65309;49.790;18.972;2024-01-16T16:37:01;60119.06;;;-145.46;98.87
76478;BME280;65309;49.790;18.972;2024-01-16T16:42:05;60137.97;;;-145.46;99.10
76478;BME280;65309;49.790;18.972;2024-01-16T16:47:07;60095.94;;;-145.46;98.64
76478;BME280;65309;49.790;18.972;2024-01-16T16:52:11;60146.38;;;-145.46;98.54
76478;BME280;65309;49.790;18.972;2024-01-16T16:57:14;60133.78;;;-145.46;98.22
76478;BME280;65309;49.790;18.972;2024-01-16T17:02:16;60121.16;;;-145.46;98.03
76478;BME280;65309;49.790;18.972;2024-01-16T17:07:19;60121.16;;;-145.46;98.61
76478;BME280;65309;49.790;18.972;2024-01-16T17:12:22;60121.16;;;-145.46;98.71
76478;BME280;65309;49.790;18.972;2024-01-16T17:17:24;60119.06;;;-145.46;98.97
76478;BME280;65309;49.790;18.972;2024-01-16T17:22:28;60121.16;;;-145.46;99.36
76478;BME280;65309;49.790;18.972;2024-01-16T17:27:30;60104.34;;;-145.46;99.85
76478;BME280;65309;49.790;18.972;2024-01-16T17:32:35;60119.06;;;-145.46;99.98
76478;BME280;65309;49.790;18.972;2024-01-16T17:37:39;60112.75;;;-145.46;98.92
76478;BME280;65309;49.790;18.972;2024-01-16T17:42:41;60127.47;;;-145.46;96.70
76478;BME280;65309;49.790;18.972;2024-01-16T17:47:43;60125.38;;;-145.46;93.28
76478;BME280;65309;49.790;18.972;2024-01-16T17:52:47;60121.16;;;-145.46;89.71
76478;BME280;65309;49.790;18.972;2024-01-16T17:57:49;60114.84;;;-145.46;88.26
76478;BME280;65309;49.790;18.972;2024-01-16T18:02:51;60165.31;;;-145.46;87.90
76478;BME280;65309;49.790;18.972;2024-01-16T18:07:55;60083.31;;;-145.46;87.76
76478;BME280;65309;49.790;18.972;2024-01-16T18:12:58;60144.28;;;-145.46;86.63
76478;BME280;65309;49.790;18.972;2024-01-16T18:18:00;60116.97;;;-145.46;86.09
76478;BME280;65309;49.790;18.972;2024-01-16T18:23:04;60131.69;;;-145.46;85.91
76478;BME280;65309;49.790;18.972;2024-01-16T18:28:08;60148.50;;;-145.46;86.26
76478;BME280;65309;49.790;18.972;2024-01-16T18:33:11;60144.28;;;-145.46;86.15
76478;BME280;65309;49.790;18.972;2024-01-16T18:38:15;60154.81;;;-145.46;86.69
76478;BME280;65309;49.790;18.972;2024-01-16T18:43:20;60125.38;;;-145.46;85.22
76478;BME280;65309;49.790;18.972;2024-01-16T18:48:24;60087.53;;;-145.46;84.33
76478;BME280;65309;49.790;18.972;2024-01-16T18:53:27;60154.81;;;-145.46;82.35
76478;BME280;65309;49.790;18.972;2024-01-16T18:58:29;60114.84;;;-145.46;81.95
76478;BME280;65309;49.790;18.972;2024-01-16T19:03:32;60129.56;;;-145.46;80.39
76478;BME280;65309;49.790;18.972;2024-01-16T19:08:38;60152.69;;;-145.46;79.76
76478;BME280;65309;49.790;18.972;2024-01-16T19:13:41;60121.16;;;-145.46;79.31
76478;BME280;65309;49.790;18.972;2024-01-16T19:18:46;60148.50;;;-145.46;76.86
76478;BME280;65309;49.790;18.972;2024-01-16T19:23:50;60137.97;;;-145.46;77.63
76478;BME280;65309;49.790;18.972;2024-01-16T19:28:53;60119.06;;;-145.46;77.71
76478;BME280;65309;49.790;18.972;2024-01-16T19:33:55;60079.13;;;-145.46;77.53
76478;BME280;65309;49.790;18.972;2024-01-16T19:38:59;60129.56;;;-145.46;77.76
76478;BME280;65309;49.790;18.972;2024-01-16T19:44:01;60121.16;;;-145.46;78.19
76478;BME280;65309;49.790;18.972;2024-01-16T19:49:03;60121.16;;;-145.46;78.18
76478;BME280;65309;49.790;18.972;2024-01-16T19:54:12;60089.63;;;-145.46;77.96
76478;BME280;65309;49.790;18.972;2024-01-16T19:59:14;60108.56;;;-145.46;79.52
76478;BME280;65309;49.790;18.972;2024-01-16T20:04:16;60116.97;;;-145.46;80.13
76478;BME280;65309;49.790;18.972;2024-01-16T20:09:21;60146.38;;;-145.46;81.03
76478;BME280;65309;49.790;18.972;2024-01-16T20:14:23;60180.03;;;-145.46;81.38
76478;BME280;65309;49.790;18.972;2024-01-16T20:19:25;60098.03;;;-145.46;80.73
76478;BME280;65309;49.790;18.972;2024-01-16T20:24:29;60131.69;;;-145.46;81.05
76478;BME280;65309;49.790;18.972;2024-01-16T20:29:33;60108.56;;;-145.46;81.25
76478;BME280;65309;49.790;18.972;2024-01-16T20:34:37;60112.75;;;-145.46;80.87
76478;BME280;65309;49.790;18.972;2024-01-16T20:39:40;60146.38;;;-145.46;81.85
76478;BME280;65309;49.790;18.972;2024-01-16T20:44:42;60135.88;;;-145.46;81.13
76478;BME280;65309;49.790;18.972;2024-01-16T20:49:44;60133.78;;;-145.46;81.96
76478;BME280;65309;49.790;18.972;2024-01-16T20:54:50;60112.75;;;-145.46;81.77
76478;BME280;65309;49.790;18.972;2024-01-16T20:59:52;60150.59;;;-145.46;81.92
76478;BME280;65309;49.790;18.972;2024-01-16T21:04:55;60093.84;;;-145.46;82.48
76478;BME280;65309;49.790;18.972;2024-01-16T21:09:59;60140.09;;;-145.46;82.63
76478;BME280;65309;49.790;18.972;2024-01-16T21:15:01;60146.38;;;-145.46;82.75
76478;BME280;65309;49.790;18.972;2024-01-16T21:20:05;60127.47;;;-145.46;81.86
76478;BME280;65309;49.790;18.972;2024-01-16T21:25:09;60104.34;;;-145.46;82.34
76478;BME280;65309;49.790;18.972;2024-01-16T21:30:13;60095.94;;;-145.46;82.85
76478;BME280;65309;49.790;18.972;2024-01-16T21:35:15;60091.72;;;-145.46;82.96
76478;BME280;65309;49.790;18.972;2024-01-16T21:40:20;60100.13;;;-145.46;83.17
76478;BME280;65309;49.790;18.972;2024-01-16T21:45:22;60159.00;;;-145.46;83.99
76478;BME280;65309;49.790;18.972;2024-01-16T21:50:25;60137.97;;;-145.46;83.98
76478;BME280;65309;49.790;18.972;2024-01-16T21:55:40;60116.97;;;-145.46;83.67
76478;BME280;65309;49.790;18.972;2024-01-16T22:00:42;60165.31;;;-145.46;83.31
76478;BME280;65309;49.790;18.972;2024-01-16T22:05:45;60110.66;;;-145.46;83.75
76478;BME280;65309;49.790;18.972;2024-01-16T22:10:48;60137.97;;;-145.46;83.71
76478;BME280;65309;49.790;18.972;2024-01-16T22:15:50;60077.00;;;-145.46;84.17
76478;BME280;65309;49.790;18.972;2024-01-16T22:20:52;60116.97;;;-145.46;84.59
76478;BME280;65309;49.790;18.972;2024-01-16T22:25:56;60121.16;;;-145.46;84.95
76478;BME280;65309;49.790;18.972;2024-01-16T22:30:58;60150.59;;;-145.46;86.04
76478;BME280;65309;49.790;18.972;2024-01-16T22:36:00;60161.09;;;-145.46;86.03
76478;BME280;65309;49.790;18.972;2024-01-16T22:41:04;60104.34;;;-145.46;86.22
76478;BME280;65309;49.790;18.972;2024-01-16T22:46:06;60104.34;;;-145.46;87.04
76478;BME280;65309;49.790;18.972;2024-01-16T22:51:12;60112.75;;;-145.46;87.21
76478;BME280;65309;49.790;18.972;2024-01-16T22:56:16;60114.84;;;-145.46;87.45
76478;BME280;65309;49.790;18.972;2024-01-16T23:01:18;60135.88;;;-145.46;87.39
76478;BME280;65309;49.790;18.972;2024-01-16T23:06:21;60116.97;;;-145.46;87.81
76478;BME280;65309;49.790;18.972;2024-01-16T23:11:27;60125.38;;;-145.46;88.25
76478;BME280;65309;49.790;18.972;2024-01-16T23:16:29;60167.41;;;-145.46;88.32
76478;BME280;65309;49.790;18.972;2024-01-16T23:21:31;60112.75;;;-145.46;88.41
76478;BME280;65309;49.790;18.972;2024-01-16T23:26:36;60146.38;;;-145.46;88.18
76478;BME280;65309;49.790;18.972;2024-01-16T23:31:38;60116.97;;;-145.46;88.00
76478;BME280;65309;49.790;18.972;2024-01-16T23:36:40;60131.69;;;-145.46;88.27
76478;BME280;65309;49.790;18.972;2024-01-16T23:41:43;60123.25;;;-145.46;88.54
76478;BME280;65309;49.790;18.972;2024-01-16T23:46:46;60150.59;;;-145.46;88.96
76478;BME280;65309;49.790;18.972;2024-01-16T23:51:49;60091.72;;;-145.46;88.39
76478;BME280;65309;49.790;18.972;2024-01-16T23:56:52;60137.97;;;-145.46;88.12
